Time;durP1;ratioP1;P1;durP2;ratioP2;P2;SDS_P1;SDS_P2;PMS_P1;PMS_P2;Temp;Humidity;BMP_temperature;BMP_pressure;BME280_temperature;BME280_humidity;BME280_pressure;Samples;Min_cycle;Max_cycle;Signal;HPM_P1;HPM_P2
2022/07/08 00:02:06;;;;;;;;;;;16.70;99.90;;;;;;5021393;28;19922;-77
2022/07/08 00:04:32;;;;;;;;;;;16.70;99.90;;;;;;5019421;28;19914;-77
2022/07/08 00:06:57;;;;;;;;;;;16.70;99.90;;;;;;5016250;28;20359;-78
2022/07/08 00:09:23;;;;;;;;;;;16.70;99.90;;;;;;5019335;28;19913;-78
2022/07/08 00:11:49;;;;;;;;;;;16.70;99.90;;;;;;5017289;28;19918;-77
2022/07/08 00:14:15;;;;;;;;;;;16.60;99.90;;;;;;5023557;28;20292;-76
2022/07/08 00:16:43;;;;;;;;;;;16.50;99.90;;;;;;5017484;28;19921;-77
2022/07/08 00:19:14;;;;;;;;;;;16.50;99.90;;;;;;5015628;28;19913;-77
2022/07/08 00:21:40;;;;;;;;;;;16.50;99.90;;;;;;4999065;28;20576;-77
2022/07/08 00:24:06;;;;;;;;;;;16.40;99.90;;;;;;5013441;28;19919;-77
2022/07/08 00:26:31;;;;;;;;;;;16.40;99.90;;;;;;5001729;28;19996;-77
2022/07/08 00:28:57;;;;;;;;;;;16.40;99.90;;;;;;5010629;28;19913;-77
2022/07/08 00:31:22;;;;;;;;;;;16.40;99.90;;;;;;5012674;28;19949;-78
2022/07/08 00:33:48;;;;;;;;;;;16.40;99.90;;;;;;5017769;28;19974;-78
2022/07/08 00:36:14;;;;;;;;;;;16.60;99.90;;;;;;4995249;28;20379;-77
2022/07/08 00:38:39;;;;;;;;;;;16.70;99.90;;;;;;5014264;28;19940;-77
2022/07/08 00:41:05;;;;;;;;;;;16.80;99.90;;;;;;4990292;28;20286;-77
2022/07/08 00:43:38;;;;;;;;;;;17.00;99.90;;;;;;5003260;28;19921;-77
2022/07/08 00:46:04;;;;;;;;;;;17.00;99.90;;;;;;5012481;28;19921;-77
2022/07/08 00:48:29;;;;;;;;;;;17.10;99.90;;;;;;5009035;28;19914;-78
2022/07/08 00:50:57;;;;;;;;;;;17.20;99.90;;;;;;5010918;28;19918;-77
2022/07/08 00:53:22;;;;;;;;;;;17.10;99.90;;;;;;5013136;28;20016;-76
2022/07/08 00:55:48;;;;;;;;;;;17.10;99.90;;;;;;5013151;28;20014;-77
2022/07/08 00:58:14;;;;;;;;;;;17.10;99.90;;;;;;5010354;28;20319;-80
2022/07/08 01:00:40;;;;;;;;;;;17.10;99.90;;;;;;5009954;28;19965;-78
2022/07/08 01:03:06;;;;;;;;;;;17.00;99.90;;;;;;5011706;28;19914;-78
2022/07/08 01:05:31;;;;;;;;;;;17.00;99.90;;;;;;5011145;28;19920;-77
2022/07/08 01:07:57;;;;;;;;;;;17.00;99.90;;;;;;5010237;28;20242;-77
2022/07/08 01:10:23;;;;;;;;;;;17.00;99.90;;;;;;5009269;28;19953;-77
2022/07/08 01:12:48;;;;;;;;;;;16.90;99.90;;;;;;5010119;28;20015;-78
2022/07/08 01:15:14;;;;;;;;;;;16.90;99.90;;;;;;5013396;28;19917;-77
2022/07/08 01:17:43;;;;;;;;;;;16.90;99.90;;;;;;5012025;28;19917;-78
2022/07/08 01:20:12;;;;;;;;;;;16.90;99.90;;;;;;5011052;28;19967;-78
2022/07/08 01:22:38;;;;;;;;;;;16.80;99.90;;;;;;5015295;28;19926;-77
2022/07/08 01:25:09;;;;;;;;;;;16.80;99.90;;;;;;5016916;28;20344;-78
2022/07/08 01:27:38;;;;;;;;;;;16.50;99.90;;;;;;5015765;28;19921;-78
2022/07/08 01:30:05;;;;;;;;;;;16.30;99.90;;;;;;5011893;28;20547;-77
2022/07/08 01:32:41;;;;;;;;;;;16.20;99.90;;;;;;5006317;28;19948;-78
2022/07/08 01:35:08;;;;;;;;;;;16.00;99.90;;;;;;4992289;28;19918;-79
2022/07/08 01:37:33;;;;;;;;;;;16.00;99.90;;;;;;5008356;28;20359;-78
2022/07/08 01:39:59;;;;;;;;;;;15.80;99.90;;;;;;5009778;28;19913;-79
2022/07/08 01:42:25;;;;;;;;;;;15.90;99.90;;;;;;5011759;28;20390;-77
2022/07/08 01:44:50;;;;;;;;;;;15.80;99.90;;;;;;5007227;28;20008;-77
2022/07/08 01:47:16;;;;;;;;;;;15.70;99.90;;;;;;5009113;28;19913;-78
2022/07/08 01:49:42;;;;;;;;;;;15.60;99.90;;;;;;5005873;28;19925;-76
2022/07/08 01:52:08;;;;;;;;;;;15.50;99.90;;;;;;5008914;28;19929;-76
2022/07/08 01:54:33;;;;;;;;;;;15.40;99.90;;;;;;4993562;28;19914;-78
2022/07/08 01:57:14;;;;;;;;;;;15.40;99.90;;;;;;5006680;28;19914;-77
2022/07/08 01:59:41;;;;;;;;;;;15.30;99.90;;;;;;5007154;28;19924;-78
2022/07/08 02:02:06;;;;;;;;;;;15.30;99.90;;;;;;5011378;28;19975;-77
2022/07/08 02:04:32;;;;;;;;;;;15.30;99.90;;;;;;5009112;28;19913;-78
2022/07/08 02:07:00;;;;;;;;;;;15.30;99.90;;;;;;5008761;28;19913;-78
2022/07/08 02:09:26;;;;;;;;;;;15.20;99.90;;;;;;5013495;28;19917;-77
2022/07/08 02:14:36;;;;;;;;;;;15.20;99.90;;;;;;5011266;28;19951;-77
2022/07/08 02:17:02;;;;;;;;;;;15.20;99.90;;;;;;5009373;28;20368;-78
2022/07/08 02:19:27;;;;;;;;;;;15.20;99.90;;;;;;5004304;28;19918;-78
2022/07/08 02:21:53;;;;;;;;;;;15.30;99.90;;;;;;5006076;28;20415;-76
2022/07/08 02:24:18;;;;;;;;;;;15.20;99.90;;;;;;5006359;28;19920;-77
2022/07/08 02:26:44;;;;;;;;;;;15.30;99.90;;;;;;5006927;28;20264;-77
2022/07/08 02:29:10;;;;;;;;;;;15.40;99.90;;;;;;5012310;28;19914;-78
2022/07/08 02:31:35;;;;;;;;;;;15.50;99.90;;;;;;4987265;28;19956;-78
2022/07/08 02:34:01;;;;;;;;;;;15.60;99.90;;;;;;5011364;28;20809;-77
2022/07/08 02:36:27;;;;;;;;;;;15.80;99.90;;;;;;5007876;28;19928;-78
2022/07/08 02:38:53;;;;;;;;;;;15.80;99.90;;;;;;5007104;28;19957;-77
2022/07/08 02:41:18;;;;;;;;;;;15.80;99.90;;;;;;4995662;28;19925;-79
2022/07/08 02:43:44;;;;;;;;;;;15.90;99.90;;;;;;5011658;28;20008;-79
2022/07/08 02:46:09;;;;;;;;;;;15.90;99.90;;;;;;4994586;28;19913;-79
2022/07/08 02:48:38;;;;;;;;;;;16.00;99.90;;;;;;5009190;28;19917;-78
2022/07/08 02:51:05;;;;;;;;;;;16.00;99.90;;;;;;4992823;28;19924;-78
2022/07/08 02:53:31;;;;;;;;;;;16.00;99.90;;;;;;5011667;28;19922;-78
2022/07/08 02:55:57;;;;;;;;;;;15.90;99.90;;;;;;4992672;28;20411;-77
2022/07/08 02:58:22;;;;;;;;;;;16.00;99.90;;;;;;5006712;28;19972;-78
2022/07/08 03:00:48;;;;;;;;;;;16.00;99.90;;;;;;5009023;28;19925;-77
2022/07/08 03:03:13;;;;;;;;;;;16.00;99.90;;;;;;5008330;28;20028;-78
2022/07/08 03:05:39;;;;;;;;;;;15.90;99.90;;;;;;4990160;28;19928;-78
2022/07/08 03:08:05;;;;;;;;;;;15.80;99.90;;;;;;4988847;28;19914;-77
2022/07/08 03:10:30;;;;;;;;;;;15.90;99.90;;;;;;5007171;28;19914;-78
2022/07/08 03:12:57;;;;;;;;;;;15.90;99.90;;;;;;5009382;28;20384;-79
2022/07/08 03:15:22;;;;;;;;;;;15.80;99.90;;;;;;5004011;28;19917;-77
2022/07/08 03:17:48;;;;;;;;;;;15.80;99.90;;;;;;5005918;28;19922;-78
2022/07/08 03:20:14;;;;;;;;;;;15.80;99.90;;;;;;5008141;28;19953;-77
2022/07/08 03:22:40;;;;;;;;;;;15.80;99.90;;;;;;5007138;28;19925;-78
2022/07/08 03:25:06;;;;;;;;;;;15.80;99.90;;;;;;5002715;28;19914;-78
2022/07/08 03:27:31;;;;;;;;;;;15.80;99.90;;;;;;5004169;28;19917;-78
2022/07/08 03:29:57;;;;;;;;;;;15.70;99.90;;;;;;5008154;28;19913;-76
2022/07/08 03:32:23;;;;;;;;;;;15.70;99.90;;;;;;4986755;28;19922;-78
2022/07/08 03:34:50;;;;;;;;;;;15.70;99.90;;;;;;5007769;28;19922;-78
2022/07/08 03:37:15;;;;;;;;;;;15.70;99.90;;;;;;4988129;28;19936;-78
2022/07/08 03:39:44;;;;;;;;;;;15.70;99.90;;;;;;5006582;28;20274;-78
2022/07/08 03:42:10;;;;;;;;;;;15.60;99.90;;;;;;5004073;28;19942;-78
2022/07/08 03:44:35;;;;;;;;;;;15.60;99.90;;;;;;5008069;28;20394;-77
2022/07/08 03:47:01;;;;;;;;;;;15.60;99.90;;;;;;5013252;28;19913;-78
2022/07/08 03:49:26;;;;;;;;;;;15.60;99.90;;;;;;5013350;28;19914;-78
2022/07/08 03:51:53;;;;;;;;;;;15.50;99.90;;;;;;5012109;28;19914;-79
2022/07/08 03:54:19;;;;;;;;;;;15.50;99.90;;;;;;5013824;28;19968;-77
2022/07/08 03:56:45;;;;;;;;;;;15.30;99.90;;;;;;5011730;28;19914;-77
2022/07/08 03:59:10;;;;;;;;;;;15.00;99.90;;;;;;5010432;28;19925;-77
2022/07/08 04:01:36;;;;;;;;;;;14.90;99.90;;;;;;5009766;28;19932;-79
2022/07/08 04:04:01;;;;;;;;;;;14.70;99.90;;;;;;5011911;28;19940;-78
2022/07/08 04:06:27;;;;;;;;;;;14.60;99.90;;;;;;5012274;28;19913;-77
2022/07/08 04:08:53;;;;;;;;;;;14.60;99.90;;;;;;5013162;28;19920;-76
2022/07/08 04:11:18;;;;;;;;;;;14.50;99.90;;;;;;5008837;28;19952;-78
2022/07/08 04:13:44;;;;;;;;;;;14.60;99.90;;;;;;5011646;28;19921;-78
2022/07/08 04:16:13;;;;;;;;;;;14.50;99.90;;;;;;5012057;28;19920;-78
2022/07/08 04:18:40;;;;;;;;;;;14.50;99.90;;;;;;5011386;28;20406;-77
2022/07/08 04:21:06;;;;;;;;;;;14.50;99.90;;;;;;5014121;28;19913;-77
2022/07/08 04:23:33;;;;;;;;;;;14.60;99.90;;;;;;5012504;28;19914;-78
2022/07/08 04:25:58;;;;;;;;;;;14.60;99.90;;;;;;4996518;28;20430;-77
2022/07/08 04:28:24;;;;;;;;;;;14.80;99.90;;;;;;4994106;28;19913;-77
2022/07/08 04:30:49;;;;;;;;;;;15.00;99.90;;;;;;5009470;28;20395;-78
2022/07/08 04:33:18;;;;;;;;;;;15.10;99.90;;;;;;4998604;28;19979;-77
2022/07/08 04:35:44;;;;;;;;;;;15.20;99.90;;;;;;5012390;28;20280;-78
2022/07/08 04:38:09;;;;;;;;;;;15.30;99.90;;;;;;5012841;28;19920;-78
2022/07/08 04:40:35;;;;;;;;;;;15.30;99.90;;;;;;5011468;28;19913;-77
2022/07/08 04:43:04;;;;;;;;;;;15.40;99.90;;;;;;5011823;28;20067;-76
2022/07/08 04:45:29;;;;;;;;;;;15.40;99.90;;;;;;5008770;28;19968;-78
2022/07/08 04:47:55;;;;;;;;;;;15.40;99.90;;;;;;5011333;28;19980;-78
2022/07/08 04:50:21;;;;;;;;;;;15.40;99.90;;;;;;5007630;28;19921;-77
2022/07/08 04:52:47;;;;;;;;;;;15.40;99.90;;;;;;5010368;28;19921;-78
2022/07/08 04:55:27;;;;;;;;;;;15.50;99.90;;;;;;5010753;28;20275;-78
2022/07/08 04:57:57;;;;;;;;;;;15.50;99.90;;;;;;5009422;28;20389;-77
2022/07/08 05:00:23;;;;;;;;;;;15.50;99.90;;;;;;5005955;28;19933;-79
2022/07/08 05:02:48;;;;;;;;;;;15.50;99.90;;;;;;4989099;28;19924;-79
2022/07/08 05:05:14;;;;;;;;;;;15.50;99.90;;;;;;5002691;28;20286;-77
2022/07/08 05:07:39;;;;;;;;;;;15.60;99.90;;;;;;5008765;28;19921;-78
2022/07/08 05:10:05;;;;;;;;;;;15.50;99.90;;;;;;5011310;28;19914;-78
2022/07/08 05:12:34;;;;;;;;;;;15.50;99.90;;;;;;5006159;28;19921;-76
2022/07/08 05:15:00;;;;;;;;;;;15.60;99.90;;;;;;5010256;28;19917;-77
2022/07/08 05:17:26;;;;;;;;;;;15.60;99.90;;;;;;5008992;28;19928;-78
2022/07/08 05:19:51;;;;;;;;;;;15.70;99.90;;;;;;5006104;28;19913;-78
2022/07/08 05:22:17;;;;;;;;;;;15.70;99.90;;;;;;5011795;28;20008;-77
2022/07/08 05:24:42;;;;;;;;;;;15.80;99.90;;;;;;5006927;28;19914;-77
2022/07/08 05:27:11;;;;;;;;;;;15.80;99.90;;;;;;5009583;28;20376;-77
2022/07/08 05:29:37;;;;;;;;;;;15.90;99.90;;;;;;5009372;28;19921;-76
2022/07/08 05:32:03;;;;;;;;;;;16.00;99.90;;;;;;5006463;28;19913;-77
2022/07/08 05:34:29;;;;;;;;;;;16.00;99.90;;;;;;5011211;28;19921;-78
2022/07/08 05:36:55;;;;;;;;;;;16.10;99.90;;;;;;5007041;28;20272;-78
2022/07/08 05:39:22;;;;;;;;;;;16.10;99.90;;;;;;4995751;28;19967;-76
2022/07/08 05:41:49;;;;;;;;;;;16.10;99.90;;;;;;5010144;28;19922;-76
2022/07/08 05:44:14;;;;;;;;;;;16.20;99.90;;;;;;4992827;28;19960;-79
2022/07/08 05:46:40;;;;;;;;;;;16.30;99.90;;;;;;5009970;28;19913;-76
2022/07/08 05:49:05;;;;;;;;;;;16.40;99.90;;;;;;5009597;28;19986;-77
2022/07/08 05:51:31;;;;;;;;;;;16.40;99.90;;;;;;5010597;28;19913;-77
2022/07/08 05:53:57;;;;;;;;;;;16.50;99.90;;;;;;5003895;28;19922;-78
2022/07/08 05:56:22;;;;;;;;;;;16.60;99.90;;;;;;5007471;28;20386;-78
2022/07/08 05:58:48;;;;;;;;;;;16.70;99.90;;;;;;5008009;28;19921;-76
2022/07/08 06:01:14;;;;;;;;;;;16.70;99.90;;;;;;5008917;28;19975;-77
2022/07/08 06:03:39;;;;;;;;;;;16.60;99.90;;;;;;5004963;28;19967;-77
2022/07/08 06:06:05;;;;;;;;;;;16.70;99.90;;;;;;4991016;28;20743;-77
2022/07/08 06:08:31;;;;;;;;;;;16.80;99.90;;;;;;5009225;28;19914;-79
2022/07/08 06:10:56;;;;;;;;;;;16.90;99.90;;;;;;5007847;28;19913;-79
2022/07/08 06:13:25;;;;;;;;;;;17.00;99.90;;;;;;4993189;28;19956;-77
2022/07/08 06:15:51;;;;;;;;;;;17.10;99.90;;;;;;5006753;28;19917;-79
2022/07/08 06:18:16;;;;;;;;;;;17.00;99.90;;;;;;4990416;28;20261;-76
2022/07/08 06:20:42;;;;;;;;;;;17.10;99.90;;;;;;5008473;28;19921;-78
2022/07/08 06:23:08;;;;;;;;;;;17.20;99.90;;;;;;5008813;28;20076;-77
2022/07/08 06:25:33;;;;;;;;;;;17.30;99.90;;;;;;5005794;28;19925;-77
2022/07/08 06:27:59;;;;;;;;;;;17.30;99.90;;;;;;5005742;28;20338;-78
2022/07/08 06:30:24;;;;;;;;;;;17.30;99.90;;;;;;4974133;28;19918;-77
2022/07/08 06:32:50;;;;;;;;;;;17.40;99.90;;;;;;5006887;28;20292;-77
2022/07/08 06:35:16;;;;;;;;;;;17.50;99.90;;;;;;5005612;28;19917;-77
2022/07/08 06:37:42;;;;;;;;;;;17.60;99.90;;;;;;5001462;28;19949;-77
2022/07/08 06:40:08;;;;;;;;;;;17.70;99.90;;;;;;5002936;28;19918;-76
2022/07/08 06:42:33;;;;;;;;;;;17.70;99.90;;;;;;4992222;28;19922;-78
2022/07/08 06:44:59;;;;;;;;;;;17.70;99.90;;;;;;5004978;28;20316;-77
2022/07/08 06:47:25;;;;;;;;;;;17.90;99.90;;;;;;5005502;28;20375;-77
2022/07/08 06:49:52;;;;;;;;;;;18.00;99.90;;;;;;5007372;28;19913;-78
2022/07/08 06:52:18;;;;;;;;;;;18.10;99.90;;;;;;4998240;28;19921;-78
2022/07/08 06:54:44;;;;;;;;;;;18.10;99.90;;;;;;5001436;28;20341;-76
2022/07/08 06:57:09;;;;;;;;;;;18.30;99.90;;;;;;4997237;28;19929;-78
2022/07/08 06:59:35;;;;;;;;;;;18.40;99.90;;;;;;5004950;28;20000;-79
2022/07/08 07:02:04;;;;;;;;;;;18.70;99.90;;;;;;5005853;28;20371;-79
2022/07/08 07:04:30;;;;;;;;;;;18.70;99.90;;;;;;5006732;28;19913;-78
2022/07/08 07:06:56;;;;;;;;;;;18.70;99.90;;;;;;5006726;28;19917;-80
2022/07/08 07:09:21;;;;;;;;;;;18.70;99.90;;;;;;5006703;28;19924;-80
2022/07/08 07:11:47;;;;;;;;;;;18.70;99.90;;;;;;4992700;28;20264;-81
2022/07/08 07:14:13;;;;;;;;;;;18.80;99.90;;;;;;5007312;28;19984;-81
2022/07/08 07:16:38;;;;;;;;;;;18.80;99.90;;;;;;5006342;28;20012;-80
2022/07/08 07:19:04;;;;;;;;;;;18.90;99.90;;;;;;5010461;28;19924;-80
2022/07/08 07:21:29;;;;;;;;;;;19.00;99.90;;;;;;5010371;28;19932;-80
2022/07/08 07:23:55;;;;;;;;;;;19.00;99.90;;;;;;5010603;28;20523;-80
2022/07/08 07:26:21;;;;;;;;;;;19.10;99.90;;;;;;5011287;28;19921;-81
2022/07/08 07:28:46;;;;;;;;;;;19.10;99.90;;;;;;5012914;28;19944;-81
2022/07/08 07:31:12;;;;;;;;;;;19.20;99.90;;;;;;5010967;28;19913;-81
2022/07/08 07:33:38;;;;;;;;;;;19.20;99.90;;;;;;5010235;28;19932;-81
2022/07/08 07:36:04;;;;;;;;;;;19.10;99.90;;;;;;4993715;28;19913;-80
2022/07/08 07:38:29;;;;;;;;;;;19.10;99.90;;;;;;5008550;28;19914;-80
2022/07/08 07:40:55;;;;;;;;;;;19.30;99.90;;;;;;5013060;28;20344;-80
2022/07/08 07:43:20;;;;;;;;;;;19.30;99.90;;;;;;5006975;28;19969;-79
2022/07/08 07:45:46;;;;;;;;;;;19.30;99.90;;;;;;5004767;28;19969;-78
2022/07/08 07:48:12;;;;;;;;;;;19.40;99.90;;;;;;5003210;28;19913;-77
2022/07/08 07:50:38;;;;;;;;;;;19.50;99.90;;;;;;5007592;28;20029;-77
2022/07/08 07:53:04;;;;;;;;;;;19.60;99.90;;;;;;5003047;28;19936;-79
2022/07/08 07:55:33;;;;;;;;;;;19.70;99.90;;;;;;5009003;28;19913;-80
2022/07/08 07:57:58;;;;;;;;;;;19.90;99.90;;;;;;5010903;28;19917;-77
2022/07/08 08:00:25;;;;;;;;;;;19.80;99.90;;;;;;5002684;28;19929;-79
2022/07/08 08:02:52;;;;;;;;;;;19.90;99.90;;;;;;4992579;28;19913;-78
2022/07/08 08:05:17;;;;;;;;;;;20.00;99.90;;;;;;4989310;28;20103;-77
2022/07/08 08:07:52;;;;;;;;;;;20.10;99.90;;;;;;4989856;28;19910;-79
2022/07/08 08:10:18;;;;;;;;;;;20.00;99.90;;;;;;4991251;28;19914;-78
2022/07/08 08:12:43;;;;;;;;;;;20.10;99.90;;;;;;4990972;28;19968;-78
2022/07/08 08:15:09;;;;;;;;;;;20.10;99.90;;;;;;4989228;28;19921;-78
2022/07/08 08:17:36;;;;;;;;;;;20.20;99.90;;;;;;4988909;28;19957;-79
2022/07/08 08:20:02;;;;;;;;;;;20.40;99.90;;;;;;4985975;28;19918;-79
2022/07/08 08:22:28;;;;;;;;;;;20.40;99.90;;;;;;4991830;28;19918;-77
2022/07/08 08:24:54;;;;;;;;;;;20.50;99.90;;;;;;4985558;28;19914;-78
2022/07/08 08:27:19;;;;;;;;;;;20.60;99.90;;;;;;4991277;28;20404;-79
2022/07/08 08:29:45;;;;;;;;;;;20.60;99.90;;;;;;4988717;28;20343;-78
2022/07/08 08:32:11;;;;;;;;;;;20.50;99.90;;;;;;4992282;28;19913;-78
2022/07/08 08:34:36;;;;;;;;;;;20.50;99.90;;;;;;4991558;28;20394;-78
2022/07/08 08:37:02;;;;;;;;;;;20.60;99.90;;;;;;4989797;28;19965;-78
2022/07/08 08:39:27;;;;;;;;;;;20.70;99.90;;;;;;4993020;28;20344;-78
2022/07/08 08:41:53;;;;;;;;;;;20.90;99.90;;;;;;4974010;28;19914;-77
2022/07/08 08:44:19;;;;;;;;;;;21.00;99.90;;;;;;4975561;28;19913;-78
2022/07/08 08:46:45;;;;;;;;;;;21.10;99.90;;;;;;4993871;28;19933;-78
2022/07/08 08:49:10;;;;;;;;;;;21.20;99.90;;;;;;4992781;28;20351;-77
2022/07/08 08:51:37;;;;;;;;;;;21.10;99.90;;;;;;4991421;28;19914;-78
2022/07/08 08:54:04;;;;;;;;;;;21.10;99.90;;;;;;4976827;28;19933;-79
2022/07/08 08:56:30;;;;;;;;;;;21.10;99.90;;;;;;4992620;28;21292;-79
2022/07/08 08:58:56;;;;;;;;;;;21.20;99.90;;;;;;4990069;28;19917;-77
2022/07/08 09:01:23;;;;;;;;;;;21.20;99.90;;;;;;5003173;28;20043;-77
2022/07/08 09:03:48;;;;;;;;;;;21.20;99.90;;;;;;5011844;28;19964;-78
2022/07/08 09:06:14;;;;;;;;;;;21.20;99.90;;;;;;4993429;28;20019;-77
2022/07/08 09:08:40;;;;;;;;;;;21.40;99.90;;;;;;5008953;28;19967;-77
2022/07/08 09:11:06;;;;;;;;;;;21.50;99.90;;;;;;5004666;28;20283;-78
2022/07/08 09:13:32;;;;;;;;;;;21.50;99.90;;;;;;5010394;28;19929;-79
2022/07/08 09:15:58;;;;;;;;;;;21.50;99.90;;;;;;5009007;28;19914;-78
2022/07/08 09:18:31;;;;;;;;;;;21.60;99.90;;;;;;5004145;28;20295;-77
2022/07/08 09:20:58;;;;;;;;;;;21.50;99.90;;;;;;4990888;28;19917;-78
2022/07/08 09:23:23;;;;;;;;;;;21.60;99.90;;;;;;5008960;28;19921;-79
2022/07/08 09:25:51;;;;;;;;;;;21.60;99.90;;;;;;5006766;28;20326;-77
2022/07/08 09:28:43;;;;;;;;;;;21.60;99.90;;;;;;5004647;28;19944;-77
2022/07/08 09:31:09;;;;;;;;;;;21.60;99.90;;;;;;4982891;28;19917;-77
2022/07/08 09:33:36;;;;;;;;;;;21.70;99.90;;;;;;5008151;28;20033;-77
2022/07/08 09:36:02;;;;;;;;;;;21.80;99.90;;;;;;5013549;28;19936;-80
2022/07/08 09:38:35;;;;;;;;;;;21.90;99.90;;;;;;5011947;28;19975;-77
2022/07/08 09:41:02;;;;;;;;;;;22.00;99.90;;;;;;5013922;28;19960;-77
2022/07/08 09:43:28;;;;;;;;;;;22.10;99.90;;;;;;4994059;28;19945;-78
2022/07/08 09:46:00;;;;;;;;;;;22.10;99.90;;;;;;5014901;28;19921;-78
2022/07/08 09:48:25;;;;;;;;;;;22.20;99.90;;;;;;5010991;28;19949;-78
2022/07/08 09:50:51;;;;;;;;;;;22.20;99.90;;;;;;5009371;28;19914;-80
2022/07/08 09:53:27;;;;;;;;;;;22.20;99.90;;;;;;5012021;28;19945;-78
2022/07/08 09:55:53;;;;;;;;;;;22.30;99.90;;;;;;5006663;28;19926;-77
2022/07/08 09:58:20;;;;;;;;;;;22.40;99.90;;;;;;5006800;28;19967;-78
2022/07/08 10:00:47;;;;;;;;;;;22.50;99.90;;;;;;4993819;28;20064;-77
2022/07/08 10:03:13;;;;;;;;;;;22.50;99.90;;;;;;5009254;28;19913;-78
2022/07/08 10:05:39;;;;;;;;;;;22.40;99.90;;;;;;5008221;28;19920;-79
2022/07/08 10:08:06;;;;;;;;;;;22.30;99.90;;;;;;5009467;28;19921;-80
2022/07/08 10:10:32;;;;;;;;;;;22.40;99.90;;;;;;5023474;28;19964;-76
2022/07/08 10:12:59;;;;;;;;;;;22.30;99.90;;;;;;5006775;28;19975;-77
2022/07/08 10:15:25;;;;;;;;;;;22.30;99.90;;;;;;5008141;28;20343;-78
2022/07/08 10:17:51;;;;;;;;;;;22.40;99.90;;;;;;5007401;28;19976;-78
2022/07/08 10:20:22;;;;;;;;;;;22.50;99.90;;;;;;5011760;28;19956;-77
2022/07/08 10:22:49;;;;;;;;;;;22.70;99.90;;;;;;5009652;28;19967;-77
2022/07/08 10:25:16;;;;;;;;;;;22.60;98.90;;;;;;5010417;28;20016;-76
2022/07/08 10:27:48;;;;;;;;;;;22.70;99.00;;;;;;5010613;28;19913;-78
2022/07/08 10:30:19;;;;;;;;;;;22.80;98.80;;;;;;5009015;28;19937;-77
2022/07/08 10:32:45;;;;;;;;;;;22.80;99.30;;;;;;5007390;28;19936;-77
2022/07/08 10:35:12;;;;;;;;;;;22.80;99.50;;;;;;5009458;28;20357;-77
2022/07/08 10:37:45;;;;;;;;;;;22.90;99.10;;;;;;5004678;28;20355;-77
2022/07/08 10:40:11;;;;;;;;;;;22.90;98.30;;;;;;5006225;28;19918;-78
2022/07/08 10:42:37;;;;;;;;;;;23.10;97.10;;;;;;5004790;28;19920;-78
2022/07/08 10:45:02;;;;;;;;;;;23.30;96.60;;;;;;5008567;28;19921;-77
2022/07/08 10:47:28;;;;;;;;;;;23.30;95.90;;;;;;5009114;28;19914;-78
2022/07/08 10:50:06;;;;;;;;;;;23.40;96.00;;;;;;5006800;28;19945;-77
2022/07/08 10:52:37;;;;;;;;;;;23.40;95.60;;;;;;5023864;28;20040;-78
2022/07/08 10:55:13;;;;;;;;;;;23.40;95.70;;;;;;5007263;28;19940;-78
2022/07/08 10:57:52;;;;;;;;;;;23.70;95.30;;;;;;5007756;28;19965;-76
2022/07/08 11:00:17;;;;;;;;;;;23.60;94.60;;;;;;5003149;28;19963;-78
2022/07/08 11:02:44;;;;;;;;;;;23.60;94.20;;;;;;5008403;28;19921;-77
2022/07/08 11:05:28;;;;;;;;;;;23.40;94.20;;;;;;5008114;28;19952;-78
2022/07/08 11:08:13;;;;;;;;;;;23.40;93.20;;;;;;5008136;28;19917;-78
2022/07/08 11:10:40;;;;;;;;;;;23.40;94.10;;;;;;5005086;28;19928;-79
2022/07/08 11:13:06;;;;;;;;;;;23.50;93.30;;;;;;5004748;28;19936;-76
2022/07/08 11:15:32;;;;;;;;;;;23.60;93.40;;;;;;5003707;28;19918;-78
2022/07/08 11:17:58;;;;;;;;;;;23.70;91.90;;;;;;5001736;28;20017;-78
2022/07/08 11:20:24;;;;;;;;;;;23.60;90.80;;;;;;4987974;28;20024;-77
2022/07/08 11:22:50;;;;;;;;;;;23.70;90.40;;;;;;5007589;28;20286;-78
2022/07/08 11:25:16;;;;;;;;;;;23.80;91.20;;;;;;4981397;28;19913;-79
2022/07/08 11:27:43;;;;;;;;;;;23.80;91.30;;;;;;5004365;28;20761;-79
2022/07/08 11:30:12;;;;;;;;;;;23.80;90.90;;;;;;5004717;28;19914;-76
2022/07/08 11:32:38;;;;;;;;;;;23.80;91.50;;;;;;5004401;28;20008;-77
2022/07/08 11:35:04;;;;;;;;;;;23.90;91.70;;;;;;5007005;28;19913;-78
2022/07/08 11:37:32;;;;;;;;;;;24.00;91.80;;;;;;4989899;28;20016;-78
2022/07/08 11:39:59;;;;;;;;;;;24.00;91.80;;;;;;5006100;28;20100;-78
2022/07/08 11:42:24;;;;;;;;;;;24.10;92.00;;;;;;4990930;28;19910;-78
2022/07/08 11:44:51;;;;;;;;;;;24.20;89.20;;;;;;5005130;28;20327;-78
2022/07/08 11:47:17;;;;;;;;;;;24.30;87.10;;;;;;5004822;28;19914;-78
2022/07/08 11:49:44;;;;;;;;;;;24.30;86.60;;;;;;5005268;28;19948;-77
2022/07/08 11:52:09;;;;;;;;;;;24.20;87.40;;;;;;5005563;28;19914;-78
2022/07/08 11:54:35;;;;;;;;;;;24.30;86.60;;;;;;5006354;28;19913;-77
2022/07/08 11:57:02;;;;;;;;;;;24.30;87.80;;;;;;5005593;28;19914;-79
2022/07/08 11:59:30;;;;;;;;;;;24.40;88.40;;;;;;5006571;28;19917;-77
2022/07/08 12:01:57;;;;;;;;;;;24.30;88.50;;;;;;5004918;28;19925;-79
2022/07/08 12:04:22;;;;;;;;;;;24.30;87.80;;;;;;5004975;28;19921;-78
2022/07/08 12:06:52;;;;;;;;;;;24.40;86.70;;;;;;4990246;28;20588;-78
2022/07/08 12:09:19;;;;;;;;;;;24.50;86.50;;;;;;5012179;28;19958;-79
2022/07/08 12:11:46;;;;;;;;;;;24.50;86.80;;;;;;5010334;28;19913;-79
2022/07/08 12:14:12;;;;;;;;;;;24.50;88.10;;;;;;4993757;28;19937;-78
2022/07/08 12:16:47;;;;;;;;;;;24.60;86.80;;;;;;4996613;28;19921;-78
2022/07/08 12:19:31;;;;;;;;;;;24.70;86.60;;;;;;4993989;28;19921;-78
2022/07/08 12:22:04;;;;;;;;;;;24.80;85.40;;;;;;5008102;28;21007;-78
2022/07/08 12:24:34;;;;;;;;;;;24.90;85.80;;;;;;5011050;28;19981;-80
2022/07/08 12:27:04;;;;;;;;;;;25.00;85.60;;;;;;5012239;28;19935;-78
2022/07/08 12:29:36;;;;;;;;;;;24.90;84.90;;;;;;5009737;28;20008;-78
2022/07/08 12:32:03;;;;;;;;;;;24.90;86.00;;;;;;5010477;28;19921;-78
2022/07/08 12:34:29;;;;;;;;;;;25.00;85.90;;;;;;4996633;28;19976;-80
2022/07/08 12:37:11;;;;;;;;;;;25.10;85.80;;;;;;5013879;28;20501;-79
2022/07/08 12:39:37;;;;;;;;;;;25.20;84.10;;;;;;5010071;28;19913;-78
2022/07/08 12:42:05;;;;;;;;;;;25.20;84.10;;;;;;5006665;28;19945;-77
2022/07/08 12:44:35;;;;;;;;;;;25.00;84.90;;;;;;5011567;28;19921;-79
2022/07/08 12:47:01;;;;;;;;;;;24.70;86.50;;;;;;4994262;28;20676;-77
2022/07/08 12:49:28;;;;;;;;;;;24.80;87.10;;;;;;5009716;28;19914;-79
2022/07/08 12:51:56;;;;;;;;;;;24.80;87.40;;;;;;5006685;28;19992;-79
2022/07/08 12:54:22;;;;;;;;;;;25.00;86.40;;;;;;5011240;28;21124;-80
2022/07/08 12:56:48;;;;;;;;;;;25.00;86.30;;;;;;4991728;28;19929;-78
2022/07/08 12:59:14;;;;;;;;;;;25.00;86.30;;;;;;5012086;28;19924;-78
2022/07/08 13:01:42;;;;;;;;;;;25.20;86.00;;;;;;5011107;28;19926;-78
2022/07/08 13:04:08;;;;;;;;;;;25.40;85.20;;;;;;4976928;28;19944;-79
2022/07/08 13:06:33;;;;;;;;;;;25.40;84.20;;;;;;5008674;28;20270;-78
2022/07/08 13:08:59;;;;;;;;;;;25.40;86.10;;;;;;5007165;28;20318;-78
2022/07/08 13:11:25;;;;;;;;;;;25.70;83.60;;;;;;5008272;28;19952;-79
2022/07/08 13:13:53;;;;;;;;;;;25.60;81.70;;;;;;4992474;28;19922;-80
2022/07/08 13:16:19;;;;;;;;;;;25.50;82.70;;;;;;5010650;28;20338;-78
2022/07/08 13:18:44;;;;;;;;;;;25.50;80.80;;;;;;5009193;28;20139;-78
2022/07/08 13:21:10;;;;;;;;;;;25.50;82.30;;;;;;5002427;28;19914;-79
2022/07/08 13:23:36;;;;;;;;;;;25.70;81.00;;;;;;5012956;28;19913;-78
2022/07/08 13:26:01;;;;;;;;;;;25.80;80.40;;;;;;5011009;28;19944;-77
2022/07/08 13:28:27;;;;;;;;;;;25.80;80.60;;;;;;5015182;28;19920;-79
2022/07/08 13:30:53;;;;;;;;;;;25.90;80.80;;;;;;5011846;28;19914;-79
2022/07/08 13:33:19;;;;;;;;;;;25.90;81.40;;;;;;5010597;28;19980;-78
2022/07/08 13:35:45;;;;;;;;;;;26.00;81.30;;;;;;5014926;28;19918;-78
2022/07/08 13:38:10;;;;;;;;;;;26.10;81.20;;;;;;5011957;28;19967;-78
2022/07/08 13:40:36;;;;;;;;;;;26.30;80.80;;;;;;5014589;28;20423;-78
2022/07/08 13:43:02;;;;;;;;;;;26.10;80.10;;;;;;5012838;28;19917;-78
2022/07/08 13:45:27;;;;;;;;;;;26.10;80.70;;;;;;5016387;28;19914;-79
2022/07/08 13:47:53;;;;;;;;;;;26.20;81.20;;;;;;5021787;28;19939;-78
2022/07/08 13:50:19;;;;;;;;;;;26.10;82.10;;;;;;5013280;28;20028;-77
2022/07/08 13:52:45;;;;;;;;;;;26.10;80.70;;;;;;5016591;28;19979;-79
2022/07/08 13:55:10;;;;;;;;;;;26.10;80.70;;;;;;5010038;28;19913;-78
2022/07/08 13:57:36;;;;;;;;;;;26.30;80.90;;;;;;5012672;28;19914;-77
2022/07/08 14:00:03;;;;;;;;;;;26.30;81.30;;;;;;5012409;28;19917;-78
2022/07/08 14:02:29;;;;;;;;;;;26.20;81.30;;;;;;5012908;28;19949;-79
2022/07/08 14:04:54;;;;;;;;;;;26.60;81.00;;;;;;5009611;28;20284;-79
2022/07/08 14:07:20;;;;;;;;;;;26.40;82.30;;;;;;5012586;28;19913;-77
2022/07/08 14:09:45;;;;;;;;;;;26.60;82.00;;;;;;5009398;28;19920;-78
2022/07/08 14:12:11;;;;;;;;;;;26.60;81.00;;;;;;4988162;28;20388;-77
2022/07/08 14:14:37;;;;;;;;;;;26.40;80.90;;;;;;5010210;28;20339;-77
2022/07/08 14:17:02;;;;;;;;;;;26.50;81.80;;;;;;5010522;28;19968;-78